createdAt,value
2023-04-08T00:02:09.916Z,7.10
2023-04-08T00:04:37.380Z,7.10
2023-04-08T00:07:04.663Z,7.10
2023-04-08T00:09:35.292Z,7.10
2023-04-08T00:12:02.281Z,7.10
2023-04-08T00:14:29.183Z,7.10
2023-04-08T00:16:56.286Z,7.10
2023-04-08T00:19:23.157Z,7.00
2023-04-08T00:21:50.375Z,7.00
2023-04-08T00:24:17.864Z,7.00
2023-04-08T00:26:45.273Z,6.90
2023-04-08T00:29:14.649Z,6.90
2023-04-08T00:31:41.910Z,6.90
2023-04-08T00:34:09.054Z,6.90
2023-04-08T00:36:36.549Z,6.90
2023-04-08T00:39:05.510Z,6.90
2023-04-08T00:41:34.082Z,7.10
2023-04-08T00:44:01.692Z,6.80
2023-04-08T00:46:28.855Z,6.70
2023-04-08T00:48:58.438Z,6.70
2023-04-08T00:51:26.419Z,6.80
2023-04-08T00:53:53.422Z,6.80
2023-04-08T00:56:21.635Z,6.60
2023-04-08T00:58:51.246Z,6.60
2023-04-08T01:01:45.155Z,6.70
2023-04-08T01:04:47.484Z,6.60
2023-04-08T01:07:27.721Z,6.50
2023-04-08T01:10:05.315Z,6.60
2023-04-08T01:12:59.909Z,6.50
2023-04-08T01:15:27.279Z,6.50
2023-04-08T01:18:05.893Z,6.50
2023-04-08T01:20:33.073Z,6.50
2023-04-08T01:23:40.257Z,6.40
2023-04-08T01:26:14.473Z,6.40
2023-04-08T01:28:44.034Z,6.20
2023-04-08T01:31:11.424Z,6.40
2023-04-08T01:33:38.471Z,6.30
2023-04-08T01:36:05.879Z,6.20
2023-04-08T01:38:35.411Z,6.20
2023-04-08T01:41:05.893Z,6.20
2023-04-08T01:43:32.823Z,6.10
2023-04-08T01:46:02.209Z,6.10
2023-04-08T01:48:38.482Z,6.10
2023-04-08T01:51:08.685Z,6.00
2023-04-08T01:53:37.932Z,6.00
2023-04-08T01:56:08.026Z,5.90
2023-04-08T01:58:43.379Z,5.90
2023-04-08T02:01:20.820Z,5.80
2023-04-08T02:03:50.070Z,5.90
2023-04-08T02:06:17.411Z,5.80
2023-04-08T02:08:47.207Z,5.80
2023-04-08T02:11:25.638Z,5.90
2023-04-08T02:13:55.839Z,5.60
2023-04-08T02:16:42.953Z,5.60
2023-04-08T02:19:17.094Z,5.50
2023-04-08T02:21:58.735Z,5.60
2023-04-08T02:24:26.039Z,5.60
2023-04-08T02:26:54.067Z,5.50
2023-04-08T02:29:23.870Z,5.50
2023-04-08T02:31:51.326Z,5.60
2023-04-08T02:34:28.873Z,5.50
2023-04-08T02:36:58.687Z,5.20
2023-04-08T02:39:33.317Z,5.40
2023-04-08T02:42:01.291Z,5.40
2023-04-08T02:44:28.631Z,5.40
2023-04-08T02:46:58.209Z,5.50
2023-04-08T02:49:28.098Z,5.30
2023-04-08T02:52:01.246Z,5.30
2023-04-08T02:54:28.583Z,5.30
2023-04-08T02:56:56.884Z,5.20
2023-04-08T02:59:26.662Z,5.20
2023-04-08T03:01:57.001Z,5.20
2023-04-08T03:05:05.861Z,5.10
2023-04-08T03:08:20.153Z,5.10
2023-04-08T03:14:47.265Z,5.30
2023-04-08T04:03:10.227Z,4.80
2023-04-08T05:43:45.012Z,4.00
2023-04-08T06:02:34.453Z,4.10
2023-04-08T10:41:29.128Z,16.40
2023-04-08T10:43:56.375Z,16.60
2023-04-08T10:46:30.967Z,16.60
2023-04-08T10:49:15.795Z,16.80
2023-04-08T10:51:44.635Z,17.10
2023-04-08T10:54:13.574Z,17.20
2023-04-08T10:57:30.375Z,17.40
2023-04-08T11:00:20.348Z,17.50
2023-04-08T11:02:49.152Z,17.80
2023-04-08T11:05:16.485Z,17.90
2023-04-08T11:07:43.457Z,18.20
2023-04-08T11:10:10.501Z,18.50
2023-04-08T11:12:55.530Z,18.40
2023-04-08T11:15:36.269Z,18.30
2023-04-08T11:18:22.930Z,18.30
2023-04-08T11:20:57.750Z,18.20
2023-04-08T11:23:27.348Z,18.20
2023-04-08T11:25:54.324Z,18.20
2023-04-08T11:28:21.444Z,18.30
2023-04-08T11:30:48.654Z,18.40
2023-04-08T11:33:15.625Z,18.20
2023-04-08T11:35:42.910Z,17.90
2023-04-08T11:38:10.713Z,17.80
2023-04-08T11:40:37.830Z,17.60
2023-04-08T11:43:19.904Z,17.50
2023-04-08T11:45:47.008Z,17.50
2023-04-08T11:48:17.406Z,17.40
2023-04-08T11:51:02.550Z,17.20
2023-04-08T11:53:29.796Z,17.10
2023-04-08T11:55:56.856Z,17.00
2023-04-08T11:58:23.811Z,16.90
2023-04-08T12:00:50.969Z,16.80
2023-04-08T12:03:18.423Z,16.80
2023-04-08T12:05:58.354Z,16.80
2023-04-08T12:08:28.747Z,16.80
2023-04-08T12:11:06.390Z,16.90
2023-04-08T12:13:53.927Z,16.90
2023-04-08T12:16:34.612Z,17.10
2023-04-08T12:19:01.507Z,17.60
2023-04-08T12:21:28.593Z,18.00
2023-04-08T12:23:55.722Z,18.30
2023-04-08T12:26:22.876Z,18.70
2023-04-08T12:28:49.819Z,19.20
2023-04-08T12:31:16.723Z,19.50
2023-04-08T12:33:43.615Z,19.70
2023-04-08T12:36:12.934Z,20.10
2023-04-08T12:38:40.554Z,20.50
2023-04-08T12:41:12.477Z,20.70
2023-04-08T12:43:39.578Z,20.80
2023-04-08T12:46:09.296Z,21.00
2023-04-08T12:48:36.860Z,21.40
2023-04-08T12:51:07.116Z,22.00
2023-04-08T12:53:34.442Z,22.30
2023-04-08T12:56:01.578Z,22.30
2023-04-08T12:58:28.515Z,22.00
2023-04-08T13:00:55.790Z,21.50
2023-04-08T13:03:22.890Z,20.80
2023-04-08T13:05:50.104Z,20.50
2023-04-08T13:08:17.715Z,20.60
2023-04-08T13:10:44.792Z,21.00
2023-04-08T13:13:14.368Z,21.30
2023-04-08T13:16:21.202Z,21.50
2023-04-08T13:18:48.596Z,21.20
2023-04-08T13:21:16.179Z,20.60
2023-04-08T13:23:43.155Z,20.20
2023-04-08T13:26:13.797Z,19.80
2023-04-08T13:28:55.839Z,19.50
2023-04-08T13:31:29.387Z,19.50
2023-04-08T13:33:58.137Z,19.70
2023-04-08T13:36:26.973Z,20.10
2023-04-08T13:38:54.793Z,20.30
2023-04-08T13:41:22.032Z,20.40
2023-04-08T13:43:51.955Z,20.60
2023-04-08T13:46:18.950Z,20.40
2023-04-08T13:48:50.757Z,20.00
2023-04-08T13:51:18.215Z,19.70
2023-04-08T13:53:45.211Z,19.30
2023-04-08T13:56:12.250Z,19.00
2023-04-08T13:58:39.243Z,18.70
2023-04-08T14:01:06.378Z,18.40
2023-04-08T14:03:33.289Z,18.20
2023-04-08T14:06:01.816Z,18.10
2023-04-08T14:08:31.863Z,18.30
2023-04-08T14:11:02.023Z,18.70
2023-04-08T14:13:28.826Z,19.20
2023-04-08T14:15:58.528Z,19.70
2023-04-08T14:18:28.407Z,20.30
2023-04-08T14:21:02.696Z,20.80
2023-04-08T14:23:29.701Z,21.30
2023-04-08T14:25:56.559Z,21.80
2023-04-08T14:28:23.616Z,22.30
2023-04-08T14:30:50.514Z,22.70
2023-04-08T14:33:19.968Z,23.10
2023-04-08T14:35:47.772Z,23.40
2023-04-08T14:38:14.859Z,23.30
2023-04-08T14:40:47.338Z,22.90
2023-04-08T14:43:14.266Z,22.40
2023-04-08T14:45:44.593Z,21.80
2023-04-08T14:48:11.597Z,21.20
2023-04-08T14:50:38.630Z,20.70
2023-04-08T14:53:05.588Z,20.10
2023-04-08T14:55:32.930Z,19.70
2023-04-08T14:58:01.043Z,19.30
2023-04-08T15:00:28.237Z,19.00
2023-04-08T15:02:55.708Z,19.00
2023-04-08T15:05:22.766Z,19.10
2023-04-08T15:07:50.203Z,19.40
2023-04-08T15:10:17.154Z,19.50
2023-04-08T15:12:47.696Z,19.50
2023-04-08T15:15:25.680Z,19.60
2023-04-08T15:17:52.835Z,19.30
2023-04-08T15:20:20.336Z,19.30
2023-04-08T15:22:48.181Z,19.20
2023-04-08T15:25:18.144Z,18.90
2023-04-08T15:27:45.037Z,18.50
2023-04-08T15:30:12.553Z,18.30
2023-04-08T15:32:39.754Z,18.10
2023-04-08T15:35:07.170Z,17.80
2023-04-08T15:37:34.363Z,17.60
2023-04-08T15:40:01.474Z,17.50
2023-04-08T15:42:28.441Z,17.20
2023-04-08T15:44:55.697Z,17.00
2023-04-08T15:47:22.754Z,16.80
2023-04-08T15:50:00.255Z,16.70
2023-04-08T15:52:27.953Z,16.60
2023-04-08T15:54:55.003Z,16.50
2023-04-08T15:57:26.852Z,16.50
2023-04-08T15:59:53.909Z,16.50
2023-04-08T16:02:23.903Z,16.40
2023-04-08T16:04:51.232Z,16.40
2023-04-08T16:07:18.545Z,16.40
2023-04-08T16:09:45.647Z,16.30
2023-04-08T16:12:14.802Z,16.20
2023-04-08T16:14:41.992Z,16.10
2023-04-08T16:17:09.237Z,16.00
2023-04-08T16:19:36.180Z,16.00
2023-04-08T16:22:03.200Z,16.10
2023-04-08T16:24:30.496Z,16.30
2023-04-08T16:26:58.068Z,16.50
2023-04-08T16:29:25.120Z,16.70
2023-04-08T16:31:53.412Z,16.80
2023-04-08T16:34:22.727Z,16.90
2023-04-08T16:36:50.026Z,17.00
2023-04-08T16:39:16.817Z,17.10
2023-04-08T16:41:43.892Z,17.10
2023-04-08T16:44:13.785Z,17.20
2023-04-08T16:46:40.956Z,17.30
2023-04-08T16:49:08.248Z,17.30
2023-04-08T16:51:38.197Z,17.40
2023-04-08T16:54:05.247Z,17.40
2023-04-08T16:56:32.367Z,17.50
2023-04-08T16:58:59.335Z,17.50
2023-04-08T17:01:27.236Z,17.60
2023-04-08T17:03:55.360Z,17.70
2023-04-08T17:06:24.094Z,17.80
2023-04-08T17:08:54.796Z,17.70
2023-04-08T17:11:22.105Z,17.80
2023-04-08T17:13:59.774Z,17.70
2023-04-08T17:16:30.916Z,17.70
2023-04-08T17:22:40.614Z,17.60
2023-04-08T17:25:11.232Z,17.40
2023-04-08T17:27:50.567Z,17.20
2023-04-08T17:30:18.106Z,17.10
2023-04-08T17:32:49.487Z,17.00
2023-04-08T17:35:16.520Z,16.80
2023-04-08T17:37:46.714Z,16.60
2023-04-08T17:40:13.947Z,16.50
2023-04-08T17:42:44.181Z,16.30
2023-04-08T17:45:11.548Z,16.10
2023-04-08T17:47:39.659Z,15.90
2023-04-08T17:50:11.726Z,15.70
2023-04-08T17:52:39.226Z,15.40
2023-04-08T17:55:10.945Z,15.10
2023-04-08T17:57:39.033Z,14.80
2023-04-08T18:00:10.057Z,14.60
2023-04-08T18:02:37.535Z,14.40
2023-04-08T18:05:06.558Z,14.10
2023-04-08T18:07:36.676Z,13.90
2023-04-08T18:10:03.715Z,13.70
2023-04-08T18:12:31.008Z,13.50
2023-04-08T18:15:00.979Z,13.30
2023-04-08T18:17:28.163Z,13.20
2023-04-08T18:19:55.320Z,13.00
2023-04-08T18:22:25.816Z,12.90
2023-04-08T18:24:52.798Z,12.80
2023-04-08T18:27:22.100Z,12.60
2023-04-08T18:29:49.218Z,12.50
2023-04-08T18:32:16.273Z,12.40
2023-04-08T18:34:43.371Z,12.30
2023-04-08T18:37:13.880Z,12.20
2023-04-08T18:39:41.502Z,12.10
2023-04-08T18:42:11.572Z,11.90
2023-04-08T18:44:38.495Z,11.90
2023-04-08T18:47:05.499Z,11.80
2023-04-08T18:49:34.093Z,11.70
2023-04-08T18:52:03.160Z,11.60
2023-04-08T18:54:30.887Z,11.50
2023-04-08T18:56:58.253Z,11.40
2023-04-08T18:59:27.916Z,11.40
2023-04-08T19:01:58.049Z,11.30
2023-04-08T19:04:25.071Z,11.20
2023-04-08T19:06:52.063Z,11.10
2023-04-08T19:09:21.563Z,11.00
2023-04-08T19:11:48.497Z,11.00
2023-04-08T19:14:21.638Z,10.90
2023-04-08T19:16:48.934Z,10.80
2023-04-08T19:19:21.189Z,10.80
2023-04-08T19:21:51.338Z,10.70
2023-04-08T19:24:21.437Z,10.60
2023-04-08T19:26:53.135Z,10.60
2023-04-08T19:29:23.484Z,10.50
2023-04-08T19:31:56.150Z,10.50
2023-04-08T19:34:25.094Z,10.40
2023-04-08T19:36:55.965Z,10.40
2023-04-08T19:39:27.148Z,10.30
2023-04-08T19:41:55.602Z,10.20
2023-04-08T19:44:22.600Z,10.00
2023-04-08T19:46:50.009Z,10.10
2023-04-08T19:49:17.176Z,10.10
2023-04-08T19:51:44.331Z,10.10
2023-04-08T19:54:43.478Z,10.00
2023-04-08T19:57:11.772Z,9.90
2023-04-08T19:59:38.708Z,9.90
2023-04-08T20:02:05.806Z,9.80
2023-04-08T20:04:32.984Z,9.80
2023-04-08T20:07:04.074Z,9.90
2023-04-08T20:09:32.625Z,9.70
2023-04-08T20:12:06.682Z,9.70
2023-04-08T20:14:44.837Z,9.60
2023-04-08T20:17:37.443Z,9.60
2023-04-08T20:28:11.775Z,9.40
2023-04-08T20:30:56.609Z,9.40
2023-04-08T20:33:31.535Z,9.30
2023-04-08T20:36:03.831Z,9.40
2023-04-08T20:39:02.508Z,9.20
2023-04-08T20:41:30.921Z,9.30
2023-04-08T20:43:59.719Z,9.10
2023-04-08T20:46:29.839Z,9.10
2023-04-08T20:49:03.821Z,9.00
2023-04-08T20:58:48.255Z,8.90
2023-04-08T21:01:57.194Z,9.10
2023-04-08T21:05:25.665Z,8.90
2023-04-08T21:08:18.716Z,8.70
2023-04-08T21:11:36.212Z,8.70
2023-04-08T21:14:16.686Z,8.70
2023-04-08T21:16:46.552Z,8.70
2023-04-08T21:22:59.582Z,8.50
2023-04-08T21:25:27.732Z,8.60
2023-04-08T21:28:28.974Z,8.50
2023-04-08T21:37:04.545Z,8.50
2023-04-08T21:40:45.854Z,8.60
2023-04-08T21:42:40.565Z,8.40
2023-04-08T21:48:54.998Z,8.40
2023-04-08T21:51:43.344Z,8.40
2023-04-08T21:54:13.876Z,8.40
2023-04-08T21:56:52.954Z,8.40
2023-04-08T22:02:59.290Z,8.40
2023-04-08T22:05:34.858Z,8.50
2023-04-08T22:08:02.276Z,8.30
2023-04-08T22:10:43.808Z,8.30
2023-04-08T22:13:57.119Z,8.30
2023-04-08T22:17:24.013Z,8.30
2023-04-08T22:19:57.363Z,8.20
2023-04-08T22:22:31.890Z,8.30
2023-04-08T22:25:11.267Z,8.10
2023-04-08T22:27:47.487Z,8.20
2023-04-08T22:30:55.206Z,8.20
2023-04-08T22:34:08.575Z,8.20
2023-04-08T22:36:57.623Z,8.10
2023-04-08T22:52:23.625Z,7.90
2023-04-08T22:54:55.969Z,7.90
2023-04-08T22:57:32.066Z,7.90
2023-04-08T23:03:22.319Z,7.90
2023-04-08T23:05:58.753Z,7.80
2023-04-08T23:08:39.030Z,7.90
2023-04-08T23:11:18.792Z,7.80
2023-04-08T23:13:58.268Z,7.80
2023-04-08T23:16:53.666Z,7.80
2023-04-08T23:20:00.061Z,7.80
2023-04-08T23:22:27.177Z,7.70
2023-04-08T23:24:56.714Z,7.70
2023-04-08T23:28:02.061Z,7.80
2023-04-08T23:31:03.361Z,7.70
2023-04-08T23:34:08.659Z,7.70
2023-04-08T23:37:31.628Z,7.70
2023-04-08T23:43:39.020Z,7.70
2023-04-08T23:46:45.778Z,7.70
2023-04-08T23:49:14.733Z,7.70
2023-04-08T23:51:45.108Z,7.70
2023-04-08T23:54:12.150Z,7.80
2023-04-08T23:56:41.611Z,7.50
2023-04-08T23:59:08.931Z,7.70
